Time;durP1;ratioP1;P1;durP2;ratioP2;P2;SDS_P1;SDS_P2;PMS_P1;PMS_P2;Temp;Humidity;BMP_temperature;BMP_pressure;BME280_temperature;BME280_humidity;BME280_pressure;Samples;Min_cycle;Max_cycle;Signal;HPM_P1;HPM_P2
2023/07/13 00:02:15;;;;;;;2.00;1.30;;;18.20;1.00;;;;;;5040751;28;20292;-80
2023/07/13 00:04:40;;;;;;;1.40;1.20;;;18.00;1.00;;;;;;5033021;28;20174;-81
2023/07/13 00:07:07;;;;;;;1.50;1.30;;;18.00;1.00;;;;;;5017519;28;20201;-79
2023/07/13 00:09:33;;;;;;;1.60;1.30;;;18.00;1.00;;;;;;5034926;28;20178;-79
2023/07/13 00:11:59;;;;;;;1.67;1.20;;;18.00;1.00;;;;;;5033302;28;20189;-78
2023/07/13 00:14:26;;;;;;;1.73;1.40;;;17.90;1.00;;;;;;5017575;28;20206;-81
2023/07/13 00:16:52;;;;;;;1.33;1.23;;;17.70;99.90;;;;;;5017018;28;20174;-79
2023/07/13 00:19:18;;;;;;;1.50;1.30;;;17.70;99.90;;;;;;5015059;28;20225;-78
2023/07/13 00:21:44;;;;;;;3.00;1.20;;;17.70;99.90;;;;;;5016480;28;20196;-78
2023/07/13 00:24:12;;;;;;;1.53;1.30;;;17.70;99.90;;;;;;5030425;28;20189;-80
2023/07/13 00:26:39;;;;;;;1.90;1.30;;;17.70;99.90;;;;;;5004894;28;20668;-79
2023/07/13 00:29:08;;;;;;;1.33;1.23;;;17.70;41.60;;;;;;4997193;28;20186;-78
2023/07/13 00:31:34;;;;;;;1.43;1.20;;;17.70;56.90;;;;;;5014368;28;20206;-79
2023/07/13 00:34:00;;;;;;;2.43;1.23;;;17.60;99.90;;;;;;5014777;28;20202;-79
2023/07/13 00:36:26;;;;;;;1.93;1.33;;;17.50;99.90;;;;;;5014876;28;20198;-78
2023/07/13 00:38:52;;;;;;;1.40;1.27;;;17.30;1.00;;;;;;4997206;28;20243;-78
2023/07/13 00:41:18;;;;;;;2.00;1.10;;;17.30;1.00;;;;;;5013842;28;20278;-80
2023/07/13 00:43:44;;;;;;;1.40;1.30;;;17.30;1.00;;;;;;5014547;28;20179;-79
2023/07/13 00:46:20;;;;;;;2.60;1.30;;;17.20;1.00;;;;;;4997115;28;20222;-81
2023/07/13 00:48:48;;;;;;;3.27;1.50;;;17.10;1.00;;;;;;5014505;28;20174;-79
2023/07/13 00:51:20;;;;;;;4.70;1.60;;;17.10;1.00;;;;;;5012942;28;20198;-78
2023/07/13 00:53:46;;;;;;;3.00;1.43;;;17.20;1.00;;;;;;5014296;28;20191;-78
2023/07/13 00:56:12;;;;;;;2.53;1.40;;;17.20;99.90;;;;;;5014249;28;20626;-78
2023/07/13 00:58:38;;;;;;;2.50;1.50;;;17.10;99.90;;;;;;5011650;28;20171;-78
2023/07/13 01:01:04;;;;;;;2.33;1.30;;;17.00;1.00;;;;;;5046130;28;20686;-78
2023/07/13 01:03:29;;;;;;;1.60;1.50;;;16.90;1.00;;;;;;5006107;28;20182;-78
2023/07/13 01:05:55;;;;;;;2.53;1.30;;;16.90;99.90;;;;;;5014231;28;20205;-78
2023/07/13 01:08:21;;;;;;;2.00;1.53;;;16.90;99.90;;;;;;4996618;28;20175;-79
2023/07/13 01:10:55;;;;;;;2.37;1.50;;;16.90;99.90;;;;;;4995989;28;20635;-78
2023/07/13 01:13:21;;;;;;;1.93;1.43;;;16.90;99.90;;;;;;5014142;28;20170;-80
2023/07/13 01:15:49;;;;;;;2.17;1.40;;;17.00;1.00;;;;;;5014165;28;20171;-78
2023/07/13 01:18:19;;;;;;;2.57;1.50;;;17.00;1.00;;;;;;5013965;28;20268;-78
2023/07/13 01:20:57;;;;;;;1.30;1.20;;;17.10;1.00;;;;;;5013240;28;20274;-78
2023/07/13 01:23:24;;;;;;;2.50;1.60;;;17.10;1.00;;;;;;4996462;28;20641;-78
2023/07/13 01:25:50;;;;;;;2.40;1.47;;;17.10;1.00;;;;;;5013741;28;20175;-81
2023/07/13 01:28:16;;;;;;;3.53;1.53;;;17.00;1.00;;;;;;5013872;28;20713;-81
2023/07/13 01:30:45;;;;;;;1.40;1.30;;;16.90;99.90;;;;;;5013160;28;20185;-81
2023/07/13 01:33:12;;;;;;;1.73;1.50;;;16.90;34.00;;;;;;5014071;28;20359;-78
2023/07/13 01:35:38;;;;;;;1.73;1.40;;;16.70;1.00;;;;;;5013494;28;20214;-78
2023/07/13 01:38:04;;;;;;;2.03;1.33;;;16.60;1.00;;;;;;5003898;28;20178;-78
2023/07/13 01:40:31;;;;;;;1.67;1.53;;;16.50;99.90;;;;;;5007222;28;20186;-78
2023/07/13 01:42:58;;;;;;;2.63;1.47;;;16.40;99.90;;;;;;5015255;28;20201;-79
2023/07/13 01:45:24;;;;;;;2.03;1.60;;;16.40;1.00;;;;;;5031954;28;20260;-79
2023/07/13 01:47:49;;;;;;;1.43;1.33;;;16.40;99.90;;;;;;5015455;28;20401;-78
2023/07/13 01:50:15;;;;;;;1.73;1.33;;;16.40;1.00;;;;;;5014820;28;20209;-78
2023/07/13 01:52:41;;;;;;;1.80;1.47;;;16.30;99.90;;;;;;5015618;28;20190;-79
2023/07/13 01:55:07;;;;;;;1.47;1.37;;;16.20;1.00;;;;;;5031884;28;20227;-78
2023/07/13 01:57:33;;;;;;;2.17;1.60;;;16.10;99.90;;;;;;5015323;28;20171;-78
2023/07/13 01:59:58;;;;;;;1.67;1.50;;;16.20;1.00;;;;;;5014547;28;20300;-78
2023/07/13 02:02:24;;;;;;;3.33;1.70;;;16.10;1.00;;;;;;5032912;28;20197;-78
2023/07/13 02:04:50;;;;;;;2.87;1.57;;;16.30;99.90;;;;;;5032769;28;20257;-78
2023/07/13 02:07:15;;;;;;;2.40;1.40;;;16.30;63.90;;;;;;5015058;28;20631;-81
2023/07/13 02:09:42;;;;;;;1.93;1.40;;;16.30;56.00;;;;;;5014507;28;20174;-78
2023/07/13 02:12:08;;;;;;;1.83;1.63;;;16.40;1.00;;;;;;5015024;28;20563;-78
2023/07/13 02:14:34;;;;;;;1.40;1.30;;;16.30;99.90;;;;;;5032488;28;20221;-78
2023/07/13 02:16:59;;;;;;;1.57;1.30;;;16.30;1.00;;;;;;5014874;28;20179;-79
2023/07/13 02:19:25;;;;;;;3.03;1.40;;;16.30;1.00;;;;;;5014866;28;20177;-78
2023/07/13 02:21:51;;;;;;;2.60;1.53;;;16.20;1.00;;;;;;5032040;28;20229;-79
2023/07/13 02:24:17;;;;;;;1.53;1.43;;;16.10;99.90;;;;;;5032680;28;20179;-79
2023/07/13 02:26:45;;;;;;;2.00;1.50;;;16.00;1.00;;;;;;5014839;28;20652;-78
2023/07/13 02:29:11;;;;;;;1.63;1.23;;;16.00;1.00;;;;;;5014733;28;20242;-79
2023/07/13 02:31:37;;;;;;;2.07;1.87;;;15.90;99.90;;;;;;5031640;28;20280;-78
2023/07/13 02:34:03;;;;;;;2.30;1.50;;;15.70;15.60;;;;;;5032227;28;20236;-78
2023/07/13 02:36:30;;;;;;;1.87;1.67;;;15.70;99.90;;;;;;5032416;28;20189;-79
2023/07/13 02:38:56;;;;;;;3.30;1.60;;;15.70;99.90;;;;;;5032479;28;20229;-78
2023/07/13 02:41:22;;;;;;;2.30;1.63;;;15.70;99.90;;;;;;5031641;28;20194;-79
2023/07/13 02:43:48;;;;;;;1.57;1.40;;;15.70;1.00;;;;;;5032135;28;20189;-78
2023/07/13 02:46:14;;;;;;;1.80;1.70;;;15.70;99.90;;;;;;5014583;28;20174;-78
2023/07/13 02:48:40;;;;;;;1.87;1.50;;;15.70;1.00;;;;;;5032115;28;20178;-78
2023/07/13 02:51:06;;;;;;;2.80;1.60;;;16.00;77.70;;;;;;5031599;28;20194;-78
2023/07/13 02:53:32;;;;;;;3.10;1.60;;;16.00;99.90;;;;;;5031882;28;20179;-78
2023/07/13 02:55:57;;;;;;;2.40;1.90;;;16.00;99.90;;;;;;5032044;28;20209;-80
2023/07/13 02:58:23;;;;;;;2.37;1.50;;;16.00;1.00;;;;;;5032139;28;20182;-78
2023/07/13 03:00:49;;;;;;;2.43;1.70;;;16.00;1.00;;;;;;5013679;28;20253;-78
2023/07/13 03:03:16;;;;;;;2.30;1.67;;;15.90;99.90;;;;;;5014370;28;20170;-78
2023/07/13 03:05:44;;;;;;;2.10;1.73;;;15.90;1.00;;;;;;5014403;28;20182;-78
2023/07/13 03:08:11;;;;;;;2.70;1.60;;;16.00;99.90;;;;;;5032240;28;20244;-80
2023/07/13 03:10:37;;;;;;;3.97;1.70;;;16.10;1.00;;;;;;5013790;28;20305;-78
2023/07/13 03:13:02;;;;;;;2.30;1.70;;;16.00;1.00;;;;;;5031961;28;20194;-78
2023/07/13 03:15:28;;;;;;;2.97;1.80;;;16.20;99.90;;;;;;5034668;28;20225;-80
2023/07/13 03:17:54;;;;;;;3.27;1.97;;;16.30;99.90;;;;;;5034748;28;20174;-78
2023/07/13 03:20:19;;;;;;;1.63;1.40;;;16.20;1.00;;;;;;5017759;28;20297;-78
2023/07/13 03:22:45;;;;;;;2.20;1.57;;;16.20;1.00;;;;;;5018313;28;20634;-78
2023/07/13 03:25:11;;;;;;;2.43;1.70;;;16.40;1.00;;;;;;5036026;28;20179;-78
2023/07/13 03:27:37;;;;;;;2.10;1.60;;;16.30;1.00;;;;;;5035749;28;20174;-78
2023/07/13 03:30:04;;;;;;;2.20;1.60;;;16.40;1.00;;;;;;5017320;28;20201;-79
2023/07/13 03:32:30;;;;;;;2.87;1.70;;;16.50;1.00;;;;;;5035618;28;20178;-78
2023/07/13 03:34:56;;;;;;;2.00;1.67;;;16.50;24.40;;;;;;5035763;28;20660;-78
2023/07/13 03:37:21;;;;;;;2.30;1.83;;;16.50;25.90;;;;;;5035572;28;20543;-79
2023/07/13 03:39:47;;;;;;;2.00;1.50;;;16.50;99.90;;;;;;5035073;28;20190;-78
2023/07/13 03:42:12;;;;;;;3.43;1.60;;;16.50;1.00;;;;;;5035504;28;20199;-79
2023/07/13 03:44:40;;;;;;;2.03;1.57;;;16.50;1.00;;;;;;5035810;28;20628;-79
2023/07/13 03:47:06;;;;;;;1.73;1.63;;;16.40;1.00;;;;;;5017835;28;20182;-80
2023/07/13 03:49:31;;;;;;;2.20;1.37;;;16.40;1.00;;;;;;5017490;28;20541;-78
2023/07/13 03:51:57;;;;;;;2.10;1.90;;;16.20;99.90;;;;;;5034930;28;20204;-79
2023/07/13 03:54:23;;;;;;;2.90;2.00;;;16.40;1.00;;;;;;5017743;28;20225;-78
2023/07/13 03:56:48;;;;;;;2.93;1.80;;;16.40;1.00;;;;;;5035291;28;20224;-78
2023/07/13 03:59:14;;;;;;;1.93;1.73;;;16.50;99.90;;;;;;5017401;28;20261;-80
2023/07/13 04:01:40;;;;;;;2.37;1.60;;;16.40;99.90;;;;;;5034546;28;20339;-78
2023/07/13 04:04:05;;;;;;;3.03;1.67;;;16.30;1.00;;;;;;5017397;28;20183;-78
2023/07/13 04:06:32;;;;;;;2.00;1.80;;;16.40;1.00;;;;;;5035331;28;20174;-79
2023/07/13 04:09:00;;;;;;;2.10;1.83;;;16.40;22.40;;;;;;5017145;28;20236;-78
2023/07/13 04:11:28;;;;;;;1.80;1.63;;;16.50;99.90;;;;;;5016894;28;20683;-78
2023/07/13 04:13:54;;;;;;;2.70;2.00;;;16.40;99.90;;;;;;5034735;28;20202;-78
2023/07/13 04:16:20;;;;;;;3.60;1.53;;;16.30;1.00;;;;;;5034862;28;20181;-78
2023/07/13 04:18:47;;;;;;;2.43;1.70;;;16.40;1.00;;;;;;5017064;28;20174;-78
2023/07/13 04:21:13;;;;;;;3.47;1.63;;;16.30;38.10;;;;;;5016675;28;20225;-79
2023/07/13 04:23:39;;;;;;;3.17;1.67;;;16.30;99.90;;;;;;5017165;28;20228;-78
2023/07/13 04:26:05;;;;;;;2.80;1.40;;;16.20;99.90;;;;;;5033391;28;20182;-78
2023/07/13 04:28:31;;;;;;;1.60;1.50;;;16.30;1.00;;;;;;5034570;28;20175;-78
2023/07/13 04:30:57;;;;;;;2.33;1.70;;;16.20;99.90;;;;;;5034348;28;20190;-78
2023/07/13 04:33:23;;;;;;;3.77;1.80;;;16.30;95.10;;;;;;5016778;28;20183;-78
2023/07/13 04:35:54;;;;;;;3.40;2.00;;;16.20;99.90;;;;;;5016686;28;20214;-78
2023/07/13 04:38:20;;;;;;;2.10;1.70;;;16.20;1.00;;;;;;5033494;28;20274;-79
2023/07/13 04:40:46;;;;;;;2.00;1.70;;;16.20;1.00;;;;;;5016081;28;20198;-79
2023/07/13 04:43:11;;;;;;;3.63;1.83;;;16.20;1.00;;;;;;5034274;28;20185;-79
2023/07/13 04:45:37;;;;;;;2.03;1.83;;;16.30;99.90;;;;;;5016706;28;20183;-78
2023/07/13 04:48:03;;;;;;;2.33;1.87;;;16.30;1.00;;;;;;5016670;28;20699;-78
2023/07/13 04:50:28;;;;;;;2.03;1.50;;;16.40;99.90;;;;;;5033560;28;20205;-77
2023/07/13 04:52:54;;;;;;;1.70;1.60;;;17.10;21.00;;;;;;5034203;28;20261;-78
2023/07/13 04:55:20;;;;;;;1.60;1.50;;;17.80;99.90;;;;;;5016371;28;20220;-75
2023/07/13 04:57:46;;;;;;;2.13;1.70;;;18.50;1.00;;;;;;5034009;28;20170;-77
2023/07/13 05:00:13;;;;;;;3.67;1.70;;;18.80;84.60;;;;;;5033541;28;20217;-77
2023/07/13 05:02:39;;;;;;;2.23;1.60;;;19.40;99.90;;;;;;5034109;28;20265;-77
2023/07/13 05:05:06;;;;;;;2.80;1.60;;;19.70;1.00;;;;;;5033998;28;20175;-77
2023/07/13 05:07:32;;;;;;;2.30;1.60;;;19.80;1.00;;;;;;5016162;28;20556;-76
2023/07/13 05:09:59;;;;;;;1.90;1.47;;;19.90;1.00;;;;;;5033421;28;20201;-77
2023/07/13 05:12:25;;;;;;;2.83;1.50;;;20.30;1.00;;;;;;5034239;28;20178;-77
2023/07/13 05:14:51;;;;;;;3.15;1.50;;;20.60;1.00;;;;;;5016329;28;20210;-78
2023/07/13 05:17:16;;;;;;;2.08;1.50;;;20.50;99.90;;;;;;5032785;28;20249;-79
2023/07/13 05:19:42;;;;;;;2.28;1.52;;;20.40;1.00;;;;;;5035622;28;20178;-80
2023/07/13 05:22:08;;;;;;;2.22;1.45;;;21.00;99.90;;;;;;5020140;28;20208;-79
2023/07/13 05:24:33;;;;;;;2.13;1.33;;;21.00;99.90;;;;;;5040177;28;20178;-79
2023/07/13 05:26:59;;;;;;;2.55;1.73;;;21.00;1.00;;;;;;5001806;28;20175;-75
2023/07/13 05:29:24;;;;;;;3.72;1.50;;;20.60;1.00;;;;;;4997158;28;20179;-80
2023/07/13 05:31:50;;;;;;;4.18;1.70;;;19.90;1.00;;;;;;4998263;28;20201;-80
2023/07/13 05:34:16;;;;;;;2.20;1.45;;;19.50;99.90;;;;;;5016013;28;20618;-81
2023/07/13 05:36:42;;;;;;;3.47;1.50;;;19.50;99.90;;;;;;5015535;28;20182;-79
2023/07/13 05:39:08;;;;;;;3.08;1.50;;;19.40;1.00;;;;;;4998015;28;20174;-80
2023/07/13 05:41:33;;;;;;;2.08;1.40;;;19.20;99.90;;;;;;5013071;28;20202;-79
2023/07/13 05:43:59;;;;;;;1.83;1.40;;;19.10;98.40;;;;;;5025342;28;20182;-79
2023/07/13 05:46:25;;;;;;;2.53;1.40;;;19.00;1.00;;;;;;5005772;28;20649;-79
2023/07/13 05:48:50;;;;;;;2.78;1.35;;;19.00;1.00;;;;;;4996611;28;20186;-81
2023/07/13 05:51:16;;;;;;;4.23;1.30;;;19.00;99.90;;;;;;5013974;28;20289;-79
2023/07/13 05:53:41;;;;;;;1.70;1.10;;;19.00;1.00;;;;;;5014295;28;20180;-79
2023/07/13 05:56:07;;;;;;;2.40;1.30;;;19.20;1.00;;;;;;4998189;28;20527;-80
2023/07/13 05:58:32;;;;;;;1.97;1.33;;;18.90;99.90;;;;;;5015810;28;20195;-79
2023/07/13 06:01:06;;;;;;;3.77;1.70;;;18.70;99.90;;;;;;5064366;22;20757;-86
2023/07/13 06:03:33;;;;;;;3.87;1.43;;;18.60;99.90;;;;;;5073054;28;20173;-85
2023/07/13 06:06:00;;;;;;;3.47;1.33;;;18.50;1.00;;;;;;5072722;28;20215;-84
2023/07/13 06:08:26;;;;;;;2.67;1.20;;;18.40;1.00;;;;;;5072773;28;20195;-84
2023/07/13 06:10:52;;;;;;;3.37;1.23;;;18.40;1.00;;;;;;5072744;28;20610;-84
2023/07/13 06:13:18;;;;;;;3.77;1.30;;;18.40;1.00;;;;;;5073270;28;20207;-83
2023/07/13 06:15:50;;;;;;;2.33;1.20;;;18.50;1.00;;;;;;5074122;28;20211;-82
2023/07/13 06:18:15;;;;;;;4.80;1.50;;;18.50;1.00;;;;;;5073818;28;20173;-85
2023/07/13 06:20:41;;;;;;;3.40;1.50;;;18.60;1.00;;;;;;5073613;28;20199;-83
2023/07/13 06:23:07;;;;;;;2.57;1.23;;;18.60;99.90;;;;;;5074226;28;20169;-84
2023/07/13 06:25:32;;;;;;;1.70;1.23;;;18.60;1.00;;;;;;5073031;28;20173;-82
2023/07/13 06:27:58;;;;;;;2.93;1.20;;;18.70;99.90;;;;;;5073891;28;20180;-83
2023/07/13 06:30:23;;;;;;;2.83;1.10;;;18.70;99.90;;;;;;5073081;28;20193;-82
2023/07/13 06:32:49;;;;;;;1.80;1.17;;;18.70;99.90;;;;;;5073358;28;20187;-83
2023/07/13 06:35:15;;;;;;;3.07;1.17;;;18.70;99.90;;;;;;5073338;28;20224;-83
2023/07/13 06:37:40;;;;;;;1.83;1.23;;;18.80;99.90;;;;;;5073172;28;20169;-83
2023/07/13 06:40:07;;;;;;;2.17;1.33;;;18.80;99.90;;;;;;5074517;28;20214;-82
2023/07/13 06:42:32;;;;;;;2.33;1.10;;;18.90;99.90;;;;;;5055538;28;20182;-83
2023/07/13 06:44:58;;;;;;;1.23;1.07;;;18.90;99.90;;;;;;5054792;28;20304;-83
2023/07/13 06:47:23;;;;;;;3.10;1.20;;;19.00;94.10;;;;;;5054578;28;20173;-84
2023/07/13 06:49:49;;;;;;;2.43;1.23;;;19.00;99.90;;;;;;5067527;28;20319;-82
2023/07/13 06:52:14;;;;;;;3.27;1.00;;;19.00;99.90;;;;;;5053212;28;20193;-83
2023/07/13 06:54:40;;;;;;;2.97;1.03;;;19.00;99.90;;;;;;5053647;28;20236;-84
2023/07/13 06:57:05;;;;;;;2.67;1.00;;;19.10;99.90;;;;;;5071248;28;20181;-85
2023/07/13 06:59:31;;;;;;;1.63;1.20;;;19.20;1.00;;;;;;5051568;28;20178;-83
2023/07/13 07:01:57;;;;;;;1.67;0.80;;;19.30;36.30;;;;;;5052510;28;20259;-84
2023/07/13 07:04:22;;;;;;;1.73;1.10;;;19.50;1.00;;;;;;5053851;28;20185;-84
2023/07/13 07:06:48;;;;;;;3.93;0.97;;;19.50;1.00;;;;;;5053772;28;20185;-86
2023/07/13 07:09:13;;;;;;;2.20;1.00;;;19.60;1.00;;;;;;5054670;28;20258;-85
2023/07/13 07:11:39;;;;;;;1.90;1.07;;;19.70;1.00;;;;;;5054415;28;20185;-84
2023/07/13 07:14:04;;;;;;;1.43;1.00;;;19.60;1.00;;;;;;5053408;28;20537;-85
2023/07/13 07:16:30;;;;;;;2.30;1.20;;;19.80;1.00;;;;;;5055654;28;20166;-85
2023/07/13 07:18:56;;;;;;;1.90;1.03;;;19.80;1.00;;;;;;5054011;28;20166;-85
2023/07/13 07:21:23;;;;;;;2.30;1.30;;;19.90;1.00;;;;;;5055349;28;20190;-84
2023/07/13 07:23:48;;;;;;;2.33;0.90;;;20.00;1.00;;;;;;5053856;28;20173;-84
2023/07/13 07:26:14;;;;;;;1.57;0.93;;;20.10;1.00;;;;;;5055529;28;20726;-84
2023/07/13 07:28:40;;;;;;;1.33;1.10;;;20.10;1.00;;;;;;5053531;28;20174;-83
2023/07/13 07:31:06;;;;;;;2.40;1.23;;;20.30;1.00;;;;;;5054544;28;20253;-84
2023/07/13 07:33:34;;;;;;;2.20;1.05;;;20.30;1.00;;;;;;5055193;28;20592;-84
2023/07/13 07:35:59;;;;;;;2.33;1.30;;;20.30;1.00;;;;;;5053664;28;20188;-85
2023/07/13 07:38:25;;;;;;;2.67;1.05;;;20.30;1.00;;;;;;5053911;28;20174;-86
2023/07/13 07:40:52;;;;;;;2.20;1.00;;;20.40;1.00;;;;;;5054606;28;20196;-82
2023/07/13 07:43:17;;;;;;;1.73;1.00;;;20.50;1.00;;;;;;5056985;28;20170;-81
2023/07/13 07:45:45;;;;;;;1.50;0.73;;;20.60;1.00;;;;;;5055306;28;20204;-81
2023/07/13 07:48:11;;;;;;;2.00;1.10;;;20.80;1.00;;;;;;5055662;28;20178;-80
2023/07/13 07:50:38;;;;;;;2.75;0.90;;;20.70;1.00;;;;;;5074927;28;20217;-80
2023/07/13 07:53:07;;;;;;;1.98;1.00;;;20.80;1.00;;;;;;5077325;28;20550;-80
2023/07/13 07:55:34;;;;;;;1.92;1.10;;;20.90;1.00;;;;;;5076251;28;20220;-81
2023/07/13 07:58:00;;;;;;;0.70;0.70;;;21.00;1.00;;;;;;5075669;28;20180;-81
2023/07/13 08:00:25;;;;;;;1.55;1.00;;;21.00;1.00;;;;;;5075070;28;20297;-81
2023/07/13 08:02:52;;;;;;;1.77;0.90;;;21.10;1.00;;;;;;5081215;28;20153;-81
2023/07/13 08:05:17;;;;;;;1.35;0.82;;;21.10;1.00;;;;;;5080249;28;20188;-80
2023/07/13 08:07:43;;;;;;;1.52;0.85;;;21.20;1.00;;;;;;5080036;28;20173;-81
2023/07/13 08:10:09;;;;;;;1.88;1.02;;;21.30;1.00;;;;;;5079923;28;20169;-81
2023/07/13 08:12:36;;;;;;;2.38;1.00;;;21.40;99.90;;;;;;5079079;28;20663;-81
2023/07/13 08:15:02;;;;;;;1.60;1.00;;;21.40;99.90;;;;;;5079165;28;20224;-81
2023/07/13 08:17:28;;;;;;;1.60;0.90;;;21.60;99.90;;;;;;5078949;28;20184;-80
2023/07/13 08:19:53;;;;;;;2.13;1.00;;;21.70;99.90;;;;;;5078882;28;20195;-80
2023/07/13 08:22:19;;;;;;;2.65;0.80;;;21.80;99.90;;;;;;5079816;28;20215;-80
2023/07/13 08:24:45;;;;;;;1.17;0.90;;;21.90;99.90;;;;;;5079091;28;20196;-82
2023/07/13 08:27:11;;;;;;;1.73;0.90;;;21.90;99.90;;;;;;5079427;28;20177;-80
2023/07/13 08:29:37;;;;;;;0.93;0.80;;;21.70;99.90;;;;;;5078327;28;20177;-79
2023/07/13 08:32:04;;;;;;;2.30;0.95;;;21.90;99.90;;;;;;5080382;28;20197;-80
2023/07/13 08:34:30;;;;;;;2.00;1.25;;;22.00;99.90;;;;;;5078796;28;20230;-80
2023/07/13 08:36:55;;;;;;;2.47;0.90;;;22.10;99.90;;;;;;5078584;28;20169;-80
2023/07/13 08:39:21;;;;;;;1.08;0.80;;;22.20;99.90;;;;;;5079204;28;20657;-80
2023/07/13 08:41:58;;;;;;;1.75;0.90;;;22.20;99.90;;;;;;5078085;28;20189;-81
2023/07/13 08:44:56;;;;;;;1.48;0.88;;;22.30;99.90;;;;;;5080037;28;20161;-80
2023/07/13 08:47:24;;;;;;;1.40;0.80;;;22.40;99.90;;;;;;5039169;28;20203;-81
2023/07/13 08:49:50;;;;;;;1.30;0.88;;;22.40;99.90;;;;;;5078589;28;20215;-80
2023/07/13 08:52:38;;;;;;;0.80;0.80;;;22.50;99.90;;;;;;5078751;28;20197;-81
2023/07/13 08:55:12;;;;;;;2.75;0.80;;;22.60;99.90;;;;;;5078230;28;20208;-81
2023/07/13 08:57:41;;;;;;;1.40;0.80;;;22.40;99.90;;;;;;5077998;28;20165;-80
2023/07/13 09:00:11;;;;;;;1.50;0.88;;;22.50;99.90;;;;;;5075421;28;20172;-82
2023/07/13 09:02:53;;;;;;;2.05;1.00;;;22.40;99.90;;;;;;5076534;28;20173;-82
2023/07/13 09:05:41;;;;;;;2.38;0.93;;;22.80;99.90;;;;;;5075002;28;20222;-82
2023/07/13 09:08:38;;;;;;;2.97;0.98;;;22.90;99.90;;;;;;5075809;28;20169;-82
2023/07/13 09:11:31;;;;;;;2.33;0.90;;;23.00;99.90;;;;;;5075036;28;20192;-82
2023/07/13 09:14:21;;;;;;;1.90;0.90;;;22.80;99.90;;;;;;5076196;28;20197;-82
2023/07/13 09:16:49;;;;;;;1.10;0.90;;;22.70;99.90;;;;;;5076563;28;20179;-83
2023/07/13 09:19:30;;;;;;;2.03;1.00;;;22.70;99.90;;;;;;5075954;28;20164;-82
2023/07/13 09:21:58;;;;;;;1.15;0.93;;;23.00;99.90;;;;;;5074377;28;20276;-82
2023/07/13 09:24:29;;;;;;;4.18;0.98;;;23.10;99.90;;;;;;5074987;28;20679;-83
2023/07/13 09:26:57;;;;;;;1.80;0.93;;;23.30;99.90;;;;;;5074503;28;20200;-83
2023/07/13 09:29:34;;;;;;;1.15;0.82;;;23.50;99.90;;;;;;5074932;28;20173;-82
2023/07/13 09:32:05;;;;;;;1.33;0.70;;;23.40;99.90;;;;;;5075619;28;20193;-82
2023/07/13 09:34:33;;;;;;;1.55;1.27;;;23.10;99.90;;;;;;5071278;28;20173;-84
2023/07/13 09:36:58;;;;;;;2.40;1.00;;;23.20;99.90;;;;;;5055346;28;20204;-81
2023/07/13 09:39:31;;;;;;;1.10;1.00;;;23.20;99.90;;;;;;5055136;28;20263;-81
2023/07/13 09:42:10;;;;;;;1.70;0.80;;;23.40;99.90;;;;;;5054877;28;20193;-82
2023/07/13 09:44:59;;;;;;;0.65;0.65;;;23.50;99.90;;;;;;5053391;28;20186;-83
2023/07/13 09:47:29;;;;;;;3.47;1.13;;;23.30;99.90;;;;;;5053991;28;20165;-82
2023/07/13 09:50:00;;;;;;;2.60;0.75;;;23.30;99.90;;;;;;5053564;28;20234;-80
2023/07/13 09:52:27;;;;;;;1.02;0.70;;;23.10;99.90;;;;;;5057140;28;20624;-81
2023/07/13 09:54:58;;;;;;;1.67;0.80;;;23.20;99.90;;;;;;5056508;28;20582;-82
2023/07/13 09:57:26;;;;;;;4.03;0.88;;;23.40;99.90;;;;;;5056856;28;20150;-80
2023/07/13 09:59:53;;;;;;;1.08;0.80;;;23.40;99.90;;;;;;5055510;28;20679;-81
2023/07/13 10:02:35;;;;;;;1.55;0.80;;;23.50;99.90;;;;;;5064400;28;20212;-82
2023/07/13 10:05:10;;;;;;;1.00;0.80;;;23.50;99.90;;;;;;5073296;28;20261;-80
2023/07/13 10:07:40;;;;;;;1.30;0.73;;;23.90;99.90;;;;;;5076786;28;20163;-80
2023/07/13 10:10:15;;;;;;;0.63;0.60;;;23.90;99.90;;;;;;5076783;28;20177;-79
2023/07/13 10:12:40;;;;;;;1.90;0.73;;;24.00;99.90;;;;;;5074839;28;20161;-80
2023/07/13 10:15:15;;;;;;;0.70;0.60;;;24.10;99.90;;;;;;5076150;28;20272;-79
2023/07/13 10:17:41;;;;;;;1.10;0.82;;;24.10;99.90;;;;;;5075371;28;20168;-79
2023/07/13 10:20:12;;;;;;;1.75;0.70;;;24.00;99.90;;;;;;5075447;28;20180;-81
2023/07/13 10:22:46;;;;;;;1.52;0.70;;;24.00;99.90;;;;;;5074331;28;20235;-80
2023/07/13 10:25:23;;;;;;;0.60;0.60;;;24.10;99.90;;;;;;5075448;28;20699;-80
2023/07/13 10:27:53;;;;;;;1.27;0.80;;;24.20;99.90;;;;;;5076409;28;20223;-78
2023/07/13 10:30:25;;;;;;;0.60;0.60;;;24.20;99.90;;;;;;5073955;28;20185;-80
2023/07/13 10:32:52;;;;;;;0.90;0.70;;;24.40;99.90;;;;;;5074978;28;20184;-80
2023/07/13 10:35:21;;;;;;;1.02;0.80;;;24.40;99.90;;;;;;5075085;28;20248;-78
2023/07/13 10:37:55;;;;;;;1.23;0.77;;;24.60;99.90;;;;;;5075758;28;20172;-80
2023/07/13 10:40:32;;;;;;;1.02;0.73;;;24.90;99.90;;;;;;5074128;28;20322;-79
2023/07/13 10:42:59;;;;;;;1.27;1.10;;;24.50;99.90;;;;;;5073176;28;20169;-81
2023/07/13 10:45:27;;;;;;;1.85;0.80;;;24.60;99.90;;;;;;5073421;28;20194;-81
2023/07/13 10:47:55;;;;;;;1.05;0.60;;;25.10;99.90;;;;;;5073806;28;20172;-82
2023/07/13 10:50:24;;;;;;;0.95;0.73;;;25.30;99.90;;;;;;5073168;28;20177;-81
2023/07/13 10:52:56;;;;;;;0.80;0.70;;;25.10;99.90;;;;;;5073815;28;20287;-82
2023/07/13 10:56:05;;;;;;;0.80;0.80;;;25.00;99.90;;;;;;5073687;28;20184;-82
2023/07/13 10:58:37;;;;;;;0.98;0.80;;;24.80;99.90;;;;;;5011206;28;20175;-82
2023/07/13 11:01:10;;;;;;;1.60;0.85;;;25.00;99.90;;;;;;5062794;28;20220;-84
2023/07/13 11:04:00;;;;;;;0.57;0.57;;;25.30;99.90;;;;;;5072587;28;20177;-82
2023/07/13 11:06:33;;;;;;;0.70;0.70;;;25.10;98.50;;;;;;5073155;28;20541;-83
2023/07/13 11:09:17;;;;;;;0.75;0.70;;;25.10;97.90;;;;;;5073377;28;20172;-82
2023/07/13 11:11:43;;;;;;;1.55;0.77;;;25.20;99.30;;;;;;5071246;28;20211;-82
2023/07/13 11:14:27;;;;;;;2.05;0.75;;;25.00;92.10;;;;;;5072004;28;20647;-83
2023/07/13 11:16:52;;;;;;;0.93;0.60;;;24.90;83.20;;;;;;5073590;28;20176;-83
2023/07/13 11:19:18;;;;;;;1.00;0.90;;;24.80;72.80;;;;;;5073842;28;20263;-82
2023/07/13 11:22:02;;;;;;;0.65;0.65;;;24.90;74.30;;;;;;5071319;28;20267;-82
2023/07/13 11:24:58;;;;;;;0.77;0.77;;;25.30;77.20;;;;;;5071621;28;20234;-82
2023/07/13 11:28:11;;;;;;;0.77;0.70;;;25.10;71.90;;;;;;5073055;28;20165;-83
2023/07/13 11:30:43;;;;;;;0.70;0.70;;;25.10;77.00;;;;;;5044754;28;20231;-83
2023/07/13 11:33:08;;;;;;;0.80;0.70;;;24.90;78.20;;;;;;5071795;28;20161;-83
2023/07/13 11:35:38;;;;;;;0.50;0.50;;;25.00;66.80;;;;;;5074491;28;20227;-82
2023/07/13 11:38:15;;;;;;;2.05;0.80;;;25.00;51.90;;;;;;5075208;28;20200;-82
2023/07/13 11:40:42;;;;;;;0.65;0.63;;;25.20;43.50;;;;;;5075140;28;20195;-82
2023/07/13 11:43:08;;;;;;;2.15;0.70;;;25.30;37.20;;;;;;5077050;28;20647;-83
2023/07/13 11:45:34;;;;;;;1.40;0.77;;;25.20;33.60;;;;;;5076018;28;20201;-83
2023/07/13 11:48:01;;;;;;;0.93;0.70;;;25.00;31.60;;;;;;5076771;28;20193;-82
2023/07/13 11:50:27;;;;;;;1.35;0.80;;;25.20;28.10;;;;;;5076565;28;20193;-82
2023/07/13 11:52:55;;;;;;;0.75;0.50;;;25.50;28.10;;;;;;5076247;28;20639;-82
2023/07/13 11:55:24;;;;;;;0.88;0.63;;;25.40;16.80;;;;;;5075272;28;20177;-82
2023/07/13 11:58:01;;;;;;;0.93;0.70;;;25.30;13.90;;;;;;5075108;28;20180;-83
2023/07/13 12:00:32;;;;;;;1.08;0.80;;;25.70;16.60;;;;;;5101441;22;20253;-79
2023/07/13 12:03:02;;;;;;;0.80;0.70;;;25.70;10.90;;;;;;5046892;28;20219;-77
2023/07/13 12:05:29;;;;;;;0.85;0.60;;;25.80;11.90;;;;;;5038418;28;20201;-79
2023/07/13 12:07:55;;;;;;;0.80;0.55;;;26.20;12.20;;;;;;5055677;28;20170;-77
2023/07/13 12:10:29;;;;;;;1.17;0.63;;;26.20;10.30;;;;;;5055289;28;20185;-78
2023/07/13 12:12:58;;;;;;;1.58;0.70;;;26.30;7.70;;;;;;5035885;28;20158;-77
2023/07/13 12:15:49;;;;;;;1.63;0.70;;;26.20;5.50;;;;;;5035807;28;20178;-78
2023/07/13 12:18:18;;;;;;;1.10;0.80;;;26.20;6.50;;;;;;5034863;28;20282;-79
2023/07/13 12:20:45;;;;;;;1.08;0.70;;;25.90;3.10;;;;;;5034981;28;20228;-77
2023/07/13 12:23:24;;;;;;;0.65;0.60;;;25.60;15.40;;;;;;5035270;28;20202;-79
2023/07/13 12:25:51;;;;;;;1.45;0.85;;;25.60;7.10;;;;;;5035679;28;20276;-78
2023/07/13 12:28:30;;;;;;;1.02;0.80;;;25.40;12.80;;;;;;5017809;28;20167;-78
2023/07/13 12:30:59;;;;;;;0.70;0.70;;;25.40;12.70;;;;;;5017433;28;20194;-78
2023/07/13 12:33:28;;;;;;;1.17;0.90;;;25.20;12.70;;;;;;5017804;28;20173;-78
2023/07/13 12:35:53;;;;;;;1.33;0.80;;;25.00;13.70;;;;;;5031686;28;20665;-78
2023/07/13 12:38:22;;;;;;;1.55;0.80;;;24.80;19.00;;;;;;5026623;28;20201;-77
2023/07/13 12:40:52;;;;;;;2.13;0.90;;;24.60;18.70;;;;;;5034496;28;20277;-77
2023/07/13 12:43:21;;;;;;;2.10;0.88;;;24.60;20.30;;;;;;5035231;28;20641;-77
2023/07/13 12:46:04;;;;;;;1.00;0.90;;;24.60;22.30;;;;;;5035200;28;20289;-78
2023/07/13 12:48:39;;;;;;;1.08;0.60;;;24.70;24.30;;;;;;5034018;28;20629;-78
2023/07/13 12:51:11;;;;;;;3.17;0.93;;;25.20;22.30;;;;;;5016496;28;20201;-78
2023/07/13 12:53:42;;;;;;;1.40;0.90;;;24.90;20.10;;;;;;5035145;28;20154;-75
2023/07/13 12:56:24;;;;;;;1.05;0.70;;;24.70;19.40;;;;;;5034996;28;20162;-78
2023/07/13 12:58:56;;;;;;;1.67;0.80;;;24.70;23.80;;;;;;5017038;28;20179;-78